createdAt,value
2023-01-31T00:01:49.794Z,1.28
2023-01-31T00:04:17.013Z,1.23
2023-01-31T00:06:51.358Z,1.17
2023-01-31T00:09:19.283Z,1.46
2023-01-31T00:11:46.729Z,1.31
2023-01-31T00:14:20.643Z,1.37
2023-01-31T00:16:48.620Z,1.33
2023-01-31T00:19:16.012Z,1.42
2023-01-31T00:21:45.276Z,1.37
2023-01-31T00:24:15.881Z,1.28
2023-01-31T00:26:43.529Z,1.51
2023-01-31T00:29:11.251Z,1.35
2023-01-31T00:31:39.068Z,1.37
2023-01-31T00:34:07.039Z,1.38
2023-01-31T00:36:38.981Z,1.10
2023-01-31T00:39:09.766Z,1.26
2023-01-31T00:41:38.934Z,1.31
2023-01-31T00:44:07.576Z,1.28
2023-01-31T00:46:35.798Z,1.37
2023-01-31T00:49:04.045Z,1.27
2023-01-31T00:51:31.690Z,1.47
2023-01-31T00:53:58.936Z,1.34
2023-01-31T00:56:26.246Z,1.37
2023-01-31T00:58:54.077Z,1.30
2023-01-31T01:01:28.135Z,1.37
2023-01-31T01:03:57.304Z,1.57
2023-01-31T01:06:25.845Z,1.55
2023-01-31T01:08:54.798Z,1.45
2023-01-31T01:11:29.465Z,1.63
2023-01-31T01:13:58.915Z,1.61
2023-01-31T01:16:38.771Z,1.48
2023-01-31T01:19:12.162Z,1.51
2023-01-31T01:21:40.869Z,1.65
2023-01-31T01:24:15.117Z,1.72
2023-01-31T01:26:43.502Z,1.84
2023-01-31T01:29:10.830Z,1.70
2023-01-31T01:31:40.007Z,1.32
2023-01-31T01:34:17.418Z,1.18
2023-01-31T01:36:47.906Z,1.15
2023-01-31T01:39:16.745Z,1.29
2023-01-31T01:41:44.535Z,1.35
2023-01-31T01:44:45.846Z,1.21
2023-01-31T01:47:44.683Z,1.42
2023-01-31T01:50:12.036Z,1.48
2023-01-31T01:53:16.429Z,1.50
2023-01-31T01:55:56.305Z,1.53
2023-01-31T01:58:42.562Z,1.54
2023-01-31T02:01:13.857Z,1.59
2023-01-31T02:03:41.921Z,1.48
2023-01-31T02:06:09.410Z,1.50
2023-01-31T02:08:41.212Z,1.50
2023-01-31T02:11:30.799Z,1.37
2023-01-31T02:14:10.907Z,1.56
2023-01-31T02:16:38.456Z,1.83
2023-01-31T02:19:35.551Z,1.86
2023-01-31T02:22:54.532Z,1.87
2023-01-31T02:25:59.971Z,1.73
2023-01-31T02:28:48.925Z,1.78
2023-01-31T02:31:30.762Z,1.76
2023-01-31T02:34:37.463Z,1.56
2023-01-31T02:37:55.329Z,1.86
2023-01-31T02:40:47.685Z,1.82
2023-01-31T02:43:55.419Z,1.77
2023-01-31T02:47:00.559Z,1.76
2023-01-31T02:49:46.834Z,1.71
2023-01-31T02:53:05.766Z,1.82
2023-01-31T02:56:07.886Z,2.02
2023-01-31T02:58:39.573Z,2.04
2023-01-31T03:01:10.621Z,2.00
2023-01-31T03:03:39.210Z,1.85
2023-01-31T03:06:34.347Z,1.77
2023-01-31T03:09:25.931Z,1.89
2023-01-31T03:12:06.405Z,1.87
2023-01-31T03:14:52.908Z,1.77
2023-01-31T03:17:38.074Z,1.78
2023-01-31T03:20:47.626Z,1.66
2023-01-31T03:23:21.569Z,1.78
2023-01-31T03:25:51.028Z,1.68
2023-01-31T03:28:26.471Z,1.57
2023-01-31T03:31:20.104Z,1.83
2023-01-31T03:33:57.973Z,1.88
2023-01-31T03:36:39.625Z,1.68
2023-01-31T03:40:12.890Z,1.83
2023-01-31T03:42:59.883Z,1.88
2023-01-31T03:45:55.976Z,1.77
2023-01-31T03:48:30.218Z,1.57
2023-01-31T03:51:02.919Z,1.79
2023-01-31T03:53:43.882Z,1.80
2023-01-31T03:56:25.565Z,1.75
2023-01-31T03:59:03.093Z,1.56
2023-01-31T04:01:35.157Z,1.50
2023-01-31T04:04:10.538Z,1.54
2023-01-31T04:06:38.073Z,1.41
2023-01-31T04:09:06.866Z,1.28
2023-01-31T04:11:42.379Z,1.39
2023-01-31T04:14:11.363Z,1.65
2023-01-31T04:16:38.571Z,1.73
2023-01-31T04:19:05.965Z,1.76
2023-01-31T04:21:33.342Z,1.49
2023-01-31T04:24:01.004Z,1.50
2023-01-31T04:26:31.269Z,1.51
2023-01-31T04:28:58.560Z,1.56
2023-01-31T04:31:26.028Z,1.55
2023-01-31T04:33:53.284Z,1.57
2023-01-31T04:36:20.477Z,1.59
2023-01-31T04:38:47.689Z,1.77
2023-01-31T04:41:14.948Z,1.54
2023-01-31T04:43:42.276Z,1.51
2023-01-31T04:46:09.452Z,1.57
2023-01-31T04:48:36.777Z,1.66
2023-01-31T04:51:04.083Z,1.57
2023-01-31T04:53:31.713Z,1.54
2023-01-31T04:55:59.066Z,1.48
2023-01-31T04:58:26.360Z,1.58
2023-01-31T05:00:54.950Z,1.49
2023-01-31T05:03:22.222Z,1.51
2023-01-31T05:05:50.895Z,1.67
2023-01-31T05:08:18.216Z,1.51
2023-01-31T05:10:45.613Z,1.56
2023-01-31T05:13:12.917Z,1.49
2023-01-31T05:15:40.881Z,1.56
2023-01-31T05:18:08.155Z,1.37
2023-01-31T05:20:40.979Z,1.53
2023-01-31T05:23:08.622Z,1.36
2023-01-31T05:25:37.582Z,1.38
2023-01-31T05:28:06.082Z,1.54
2023-01-31T05:30:36.635Z,1.28
2023-01-31T05:33:04.087Z,1.28
2023-01-31T05:35:31.310Z,1.38
2023-01-31T05:37:58.800Z,1.37
2023-01-31T05:40:26.054Z,1.50
2023-01-31T05:43:01.637Z,1.46
2023-01-31T05:45:30.245Z,1.50
2023-01-31T05:47:58.097Z,1.46
2023-01-31T05:50:25.807Z,1.37
2023-01-31T05:52:59.790Z,1.27
2023-01-31T05:55:27.923Z,1.25
2023-01-31T05:57:55.884Z,1.34
2023-01-31T06:00:23.992Z,1.20
2023-01-31T06:02:51.390Z,1.16
2023-01-31T06:05:19.117Z,1.09
2023-01-31T06:07:46.555Z,1.29
2023-01-31T06:10:16.163Z,1.33
2023-01-31T06:12:43.487Z,1.61
2023-01-31T06:15:11.433Z,1.41
2023-01-31T06:17:38.710Z,1.36
2023-01-31T06:20:06.514Z,1.53
2023-01-31T06:22:34.220Z,1.30
2023-01-31T06:25:01.609Z,1.23
2023-01-31T06:27:33.044Z,1.19
2023-01-31T06:30:00.824Z,1.20
2023-01-31T06:32:28.164Z,1.04
2023-01-31T06:34:55.343Z,1.18
2023-01-31T06:37:22.564Z,1.12
2023-01-31T06:39:49.822Z,1.22
2023-01-31T06:42:17.101Z,1.14
2023-01-31T06:44:46.829Z,1.25
2023-01-31T06:47:14.762Z,1.13
2023-01-31T06:49:41.991Z,1.41
2023-01-31T06:52:09.199Z,1.50
2023-01-31T06:54:36.475Z,1.52
2023-01-31T06:57:03.832Z,1.46
2023-01-31T06:59:32.697Z,1.44
2023-01-31T07:02:00.661Z,1.24
2023-01-31T07:04:27.933Z,1.42
2023-01-31T07:06:55.197Z,1.63
2023-01-31T07:09:22.422Z,1.45
2023-01-31T07:11:52.220Z,1.39
2023-01-31T07:14:19.642Z,1.53
2023-01-31T07:16:46.826Z,1.44
2023-01-31T07:19:14.114Z,1.21
2023-01-31T07:21:42.291Z,1.38
2023-01-31T07:24:11.888Z,1.25
2023-01-31T07:26:39.254Z,1.53
2023-01-31T07:29:09.035Z,1.52
2023-01-31T07:31:36.232Z,1.67
2023-01-31T07:34:03.468Z,1.61
2023-01-31T07:36:31.138Z,1.76
2023-01-31T07:38:59.955Z,1.39
2023-01-31T07:41:27.500Z,1.56
2023-01-31T07:43:54.755Z,1.68
2023-01-31T07:46:22.082Z,1.62
2023-01-31T07:48:49.803Z,1.62
2023-01-31T07:51:17.324Z,1.71
2023-01-31T07:53:44.533Z,1.62
2023-01-31T07:56:15.872Z,1.69
2023-01-31T07:58:45.976Z,2.01
2023-01-31T08:01:43.967Z,2.13
2023-01-31T08:04:21.546Z,2.12
2023-01-31T08:06:53.084Z,1.90
2023-01-31T08:09:20.190Z,1.84
2023-01-31T08:11:47.550Z,2.04
2023-01-31T08:14:14.843Z,2.01
2023-01-31T08:16:42.066Z,1.70
2023-01-31T08:19:09.197Z,1.72
2023-01-31T08:21:38.942Z,1.72
2023-01-31T08:24:06.639Z,2.00
2023-01-31T08:26:33.922Z,1.93
2023-01-31T08:29:01.837Z,1.96
2023-01-31T08:31:29.692Z,1.79
2023-01-31T08:33:57.773Z,1.87
2023-01-31T08:36:31.727Z,1.91
2023-01-31T08:39:02.263Z,1.75
2023-01-31T08:41:31.421Z,2.22
2023-01-31T08:44:00.390Z,2.09
2023-01-31T08:46:33.668Z,2.41
2023-01-31T08:49:05.689Z,2.69
2023-01-31T08:51:33.106Z,2.32
2023-01-31T08:54:01.024Z,2.09
2023-01-31T08:56:28.893Z,2.01
2023-01-31T08:58:57.995Z,1.89
2023-01-31T09:01:25.671Z,2.16
2023-01-31T09:03:57.012Z,2.37
2023-01-31T09:06:27.505Z,2.21
2023-01-31T09:08:57.817Z,2.47
2023-01-31T09:11:30.340Z,2.57
2023-01-31T09:13:58.246Z,2.57
2023-01-31T09:16:27.650Z,2.59
2023-01-31T09:18:56.426Z,2.59
2023-01-31T09:21:24.540Z,2.51
2023-01-31T09:23:58.515Z,2.04
2023-01-31T09:26:26.198Z,2.50
2023-01-31T09:28:53.607Z,2.25
2023-01-31T09:31:21.926Z,2.21
2023-01-31T09:33:49.348Z,2.55
2023-01-31T09:36:20.292Z,2.57
2023-01-31T09:38:47.714Z,2.83
2023-01-31T09:41:33.651Z,2.42
2023-01-31T09:44:12.363Z,2.93
2023-01-31T09:46:58.112Z,2.70
2023-01-31T09:49:32.271Z,2.42
2023-01-31T09:52:05.171Z,2.50
2023-01-31T09:54:37.726Z,2.57
2023-01-31T09:57:56.563Z,2.68
2023-01-31T10:00:48.442Z,2.71
2023-01-31T10:03:43.258Z,2.91
2023-01-31T10:06:20.380Z,2.98
2023-01-31T10:08:56.846Z,2.85
2023-01-31T10:11:43.553Z,2.85
2023-01-31T10:14:32.765Z,2.73
2023-01-31T10:17:57.233Z,2.88
2023-01-31T10:20:39.553Z,2.80
2023-01-31T10:23:31.485Z,2.90
2023-01-31T10:26:03.742Z,2.80
2023-01-31T10:28:58.224Z,2.71
2023-01-31T10:31:31.672Z,2.73
2023-01-31T10:34:18.951Z,2.80
2023-01-31T10:37:12.625Z,2.91
2023-01-31T10:39:59.081Z,2.56
2023-01-31T10:42:36.342Z,2.49
2023-01-31T10:45:31.046Z,2.33
2023-01-31T10:48:25.447Z,2.53
2023-01-31T10:51:11.035Z,2.56
2023-01-31T10:54:15.275Z,2.60
2023-01-31T10:56:46.039Z,2.67
2023-01-31T10:59:26.203Z,3.05
2023-01-31T11:01:53.625Z,2.98
2023-01-31T11:04:38.796Z,3.13
2023-01-31T11:07:06.603Z,3.04
2023-01-31T11:09:54.120Z,3.41
2023-01-31T11:12:39.000Z,3.45
2023-01-31T11:15:28.722Z,2.97
2023-01-31T11:18:01.150Z,3.00
2023-01-31T11:20:45.706Z,3.09
2023-01-31T11:23:17.507Z,2.87
2023-01-31T11:25:51.429Z,2.74
2023-01-31T11:28:27.794Z,2.54
2023-01-31T11:30:56.064Z,2.72
2023-01-31T11:33:46.154Z,3.02
2023-01-31T11:36:23.873Z,3.27
2023-01-31T11:38:51.684Z,3.26
2023-01-31T11:41:37.447Z,3.29
2023-01-31T11:44:19.442Z,3.27
2023-01-31T11:47:00.467Z,3.04
2023-01-31T11:49:39.787Z,2.93
2023-01-31T11:52:21.873Z,3.00
2023-01-31T11:55:03.776Z,3.13
2023-01-31T11:57:37.387Z,2.90
2023-01-31T12:00:29.255Z,3.09
2023-01-31T12:03:08.915Z,3.06
2023-01-31T12:05:42.756Z,2.83
2023-01-31T12:08:42.039Z,2.74
2023-01-31T12:11:21.403Z,3.07
2023-01-31T12:13:50.817Z,2.98
2023-01-31T12:16:25.288Z,2.62
2023-01-31T12:19:13.850Z,2.78
2023-01-31T12:22:14.940Z,2.36
2023-01-31T12:25:37.740Z,2.75
2023-01-31T12:28:20.160Z,2.58
2023-01-31T12:31:28.094Z,2.55
2023-01-31T12:34:23.987Z,2.70
2023-01-31T12:37:39.085Z,2.74
2023-01-31T12:40:25.652Z,2.85
2023-01-31T12:43:05.201Z,2.83
2023-01-31T12:46:00.228Z,2.96
2023-01-31T12:48:51.584Z,2.68
2023-01-31T12:51:29.193Z,2.79
2023-01-31T12:54:17.981Z,2.83
2023-01-31T12:57:02.949Z,2.84
2023-01-31T13:00:12.596Z,2.62
2023-01-31T13:02:51.020Z,2.74
2023-01-31T13:05:33.245Z,2.87
2023-01-31T13:08:22.587Z,2.74
2023-01-31T13:11:06.329Z,2.71
2023-01-31T13:13:45.852Z,2.73
2023-01-31T13:16:38.831Z,2.48
2023-01-31T13:19:26.395Z,2.52
2023-01-31T13:22:01.234Z,2.17
2023-01-31T13:24:38.053Z,1.93
2023-01-31T13:27:26.770Z,2.16
2023-01-31T13:30:17.674Z,1.75
2023-01-31T13:32:52.565Z,1.49
2023-01-31T13:35:39.527Z,1.85
2023-01-31T13:38:17.415Z,2.05
2023-01-31T13:40:56.669Z,1.89
2023-01-31T13:43:23.989Z,1.89
2023-01-31T13:46:01.997Z,2.04
2023-01-31T13:48:47.812Z,1.94
2023-01-31T13:51:25.358Z,2.21
2023-01-31T13:54:10.899Z,2.23
2023-01-31T13:56:40.766Z,2.34
2023-01-31T13:59:11.033Z,2.46
2023-01-31T14:01:50.232Z,2.47
2023-01-31T14:04:18.059Z,2.30
2023-01-31T14:06:55.735Z,2.36
2023-01-31T14:09:28.424Z,2.25
2023-01-31T14:11:58.074Z,2.16
2023-01-31T14:14:37.663Z,2.26
2023-01-31T14:17:14.681Z,2.47
2023-01-31T14:19:45.812Z,2.43
2023-01-31T14:22:37.127Z,2.41
2023-01-31T14:25:09.998Z,2.62
2023-01-31T14:28:01.560Z,2.59
2023-01-31T14:30:40.264Z,2.49
2023-01-31T14:33:13.550Z,2.23
2023-01-31T14:36:08.708Z,2.34
2023-01-31T14:39:12.184Z,2.44
2023-01-31T14:42:06.191Z,1.97
2023-01-31T14:45:07.047Z,1.98
2023-01-31T14:48:07.709Z,2.05
2023-01-31T14:51:09.043Z,1.99
2023-01-31T14:53:58.515Z,1.88
2023-01-31T14:56:47.451Z,1.94
2023-01-31T14:59:38.802Z,1.80
2023-01-31T15:02:32.566Z,1.70
2023-01-31T15:05:18.515Z,1.82
2023-01-31T15:08:03.300Z,1.90
2023-01-31T15:11:07.494Z,1.89
2023-01-31T15:13:37.430Z,1.96
2023-01-31T15:16:20.451Z,1.86
2023-01-31T15:19:04.894Z,1.94
2023-01-31T15:21:52.001Z,1.75
2023-01-31T15:24:51.581Z,1.79
2023-01-31T15:27:46.319Z,1.78
2023-01-31T15:30:24.651Z,1.77
2023-01-31T15:33:15.555Z,1.79
2023-01-31T15:35:54.873Z,1.72
2023-01-31T15:38:53.203Z,1.91
2023-01-31T15:41:27.504Z,1.67
2023-01-31T15:44:10.061Z,1.79
2023-01-31T15:46:37.593Z,1.73
2023-01-31T15:49:39.110Z,1.74
2023-01-31T15:52:18.428Z,1.67
2023-01-31T15:54:59.210Z,1.80
2023-01-31T15:57:36.882Z,1.86
2023-01-31T16:00:04.987Z,1.80
2023-01-31T16:02:35.017Z,1.76
2023-01-31T16:05:07.188Z,1.75
2023-01-31T16:07:35.761Z,1.82
2023-01-31T16:10:03.450Z,1.63
2023-01-31T16:12:32.811Z,1.75
2023-01-31T16:15:07.865Z,1.62
2023-01-31T16:17:35.360Z,1.84
2023-01-31T16:20:02.926Z,1.76
2023-01-31T16:22:31.814Z,1.80
2023-01-31T16:25:02.591Z,1.75
2023-01-31T16:27:42.308Z,1.78
2023-01-31T16:30:17.101Z,1.88
2023-01-31T16:32:46.578Z,1.82
2023-01-31T16:35:29.938Z,1.75
2023-01-31T16:38:29.516Z,1.76
2023-01-31T16:41:00.874Z,1.86
2023-01-31T16:43:33.203Z,1.82
2023-01-31T16:46:35.967Z,1.66
2023-01-31T16:49:27.927Z,1.53
2023-01-31T16:52:16.461Z,1.64
2023-01-31T16:55:01.839Z,1.74
2023-01-31T16:57:38.225Z,1.76
2023-01-31T17:00:25.120Z,1.47
2023-01-31T17:02:58.352Z,1.58
2023-01-31T17:05:29.252Z,1.68
2023-01-31T17:07:58.462Z,1.63
2023-01-31T17:10:33.033Z,1.42
2023-01-31T17:13:21.323Z,1.22
2023-01-31T17:15:50.377Z,1.26
2023-01-31T17:18:19.047Z,1.25
2023-01-31T17:20:50.974Z,1.22
2023-01-31T17:23:19.040Z,1.22
2023-01-31T17:25:46.772Z,1.04
2023-01-31T17:28:14.119Z,1.07
2023-01-31T17:30:45.106Z,1.01
2023-01-31T17:33:15.532Z,1.00
2023-01-31T17:35:47.924Z,1.03
2023-01-31T17:38:15.210Z,0.97
2023-01-31T17:40:44.274Z,1.01
2023-01-31T17:43:21.109Z,1.02
2023-01-31T17:45:48.570Z,0.93
2023-01-31T17:48:26.239Z,0.89
2023-01-31T17:50:54.457Z,0.93
2023-01-31T17:53:21.793Z,1.08
2023-01-31T17:55:49.396Z,1.03
2023-01-31T17:58:20.168Z,1.05
2023-01-31T18:00:47.854Z,1.03
2023-01-31T18:03:24.758Z,1.03
2023-01-31T18:05:52.734Z,1.09
2023-01-31T18:08:20.779Z,1.18
2023-01-31T18:10:48.310Z,0.98
2023-01-31T18:13:15.615Z,0.99
2023-01-31T18:15:43.086Z,1.12
2023-01-31T18:18:10.478Z,1.05
2023-01-31T18:20:39.716Z,1.12
2023-01-31T18:23:08.572Z,1.23
2023-01-31T18:25:39.483Z,1.22
2023-01-31T18:28:06.849Z,1.18
2023-01-31T18:30:34.393Z,1.24
2023-01-31T18:33:01.884Z,1.31
2023-01-31T18:35:29.144Z,1.25
2023-01-31T18:37:56.510Z,1.27
2023-01-31T18:40:24.557Z,1.20
2023-01-31T18:42:51.831Z,1.39
2023-01-31T18:45:19.656Z,1.33
2023-01-31T18:47:47.179Z,1.41
2023-01-31T18:50:14.543Z,1.23
2023-01-31T18:52:44.012Z,1.09
2023-01-31T18:55:11.671Z,1.15
2023-01-31T18:57:38.985Z,1.15
2023-01-31T19:00:07.218Z,1.15
2023-01-31T19:02:34.706Z,1.30
2023-01-31T19:05:02.626Z,1.23
2023-01-31T19:07:32.968Z,1.22
2023-01-31T19:10:01.096Z,1.29
2023-01-31T19:12:28.385Z,1.29
2023-01-31T19:14:56.573Z,1.23
2023-01-31T19:17:23.918Z,1.15
2023-01-31T19:19:53.809Z,1.17
2023-01-31T19:22:21.271Z,1.08
2023-01-31T19:24:48.586Z,1.11
2023-01-31T19:27:16.066Z,1.20
2023-01-31T19:29:43.321Z,1.31
2023-01-31T19:32:10.742Z,1.23
2023-01-31T19:34:38.056Z,1.38
2023-01-31T19:37:05.582Z,1.27
2023-01-31T19:39:33.173Z,1.43
2023-01-31T19:42:00.550Z,1.36
2023-01-31T19:44:28.006Z,1.25
2023-01-31T19:46:55.344Z,1.24
2023-01-31T19:49:23.207Z,1.30
2023-01-31T19:51:50.685Z,1.22
2023-01-31T19:54:19.509Z,1.34
2023-01-31T19:56:47.176Z,1.34
2023-01-31T19:59:14.543Z,1.48
2023-01-31T20:01:41.938Z,1.55
2023-01-31T20:04:09.352Z,1.53
2023-01-31T20:06:36.856Z,1.61
2023-01-31T20:09:05.948Z,1.58
2023-01-31T20:11:35.044Z,1.73
2023-01-31T20:14:02.968Z,1.69
2023-01-31T20:16:31.046Z,1.66
2023-01-31T20:19:02.586Z,1.55
2023-01-31T20:21:31.144Z,1.68
2023-01-31T20:23:59.403Z,1.70
2023-01-31T20:26:30.033Z,1.63
2023-01-31T20:28:59.086Z,1.74
2023-01-31T20:31:27.749Z,1.73
2023-01-31T20:33:56.077Z,1.81
2023-01-31T20:36:25.060Z,1.81
2023-01-31T20:38:53.140Z,1.79
2023-01-31T20:41:22.428Z,1.81
2023-01-31T20:43:50.736Z,1.86
2023-01-31T20:46:19.503Z,1.84
2023-01-31T20:48:46.899Z,2.00
2023-01-31T20:51:14.481Z,1.92
2023-01-31T20:53:42.293Z,1.84
2023-01-31T20:56:11.113Z,1.96
2023-01-31T20:58:41.149Z,1.92
2023-01-31T21:01:10.718Z,1.83
2023-01-31T21:03:38.403Z,2.02
2023-01-31T21:06:06.442Z,1.74
2023-01-31T21:08:35.752Z,1.80
2023-01-31T21:11:08.597Z,1.73
2023-01-31T21:13:36.701Z,1.79
2023-01-31T21:16:07.167Z,1.81
2023-01-31T21:18:40.353Z,1.76
2023-01-31T21:21:14.471Z,1.79
2023-01-31T21:23:42.250Z,1.93
2023-01-31T21:26:11.750Z,1.98
2023-01-31T21:28:43.856Z,1.94
2023-01-31T21:31:17.417Z,1.95
2023-01-31T21:33:50.776Z,1.80
2023-01-31T21:36:22.300Z,1.95
2023-01-31T21:38:51.528Z,1.92
2023-01-31T21:41:37.821Z,1.94
2023-01-31T21:44:05.267Z,1.96
2023-01-31T21:46:32.745Z,2.04
2023-01-31T21:49:00.842Z,2.07
2023-01-31T21:51:28.783Z,1.89
2023-01-31T21:53:56.096Z,2.04
2023-01-31T21:56:27.423Z,2.01
2023-01-31T21:58:56.372Z,2.05
2023-01-31T22:01:27.570Z,2.04
2023-01-31T22:03:56.088Z,2.14
2023-01-31T22:06:33.795Z,2.12
2023-01-31T22:09:02.372Z,2.18
2023-01-31T22:11:34.703Z,2.04
2023-01-31T22:14:07.557Z,2.05
2023-01-31T22:16:38.761Z,2.09
2023-01-31T22:19:06.789Z,2.14
2023-01-31T22:21:37.231Z,1.97
2023-01-31T22:24:07.186Z,2.04
2023-01-31T22:26:42.454Z,2.21
2023-01-31T22:29:14.041Z,2.21
2023-01-31T22:31:43.003Z,2.16
2023-01-31T22:34:14.587Z,2.23
2023-01-31T22:36:42.930Z,2.30
2023-01-31T22:39:13.484Z,2.27
2023-01-31T22:41:40.950Z,2.23
2023-01-31T22:44:08.211Z,2.12
2023-01-31T22:46:35.449Z,2.07
2023-01-31T22:49:02.750Z,2.12
2023-01-31T22:51:30.207Z,2.22
2023-01-31T22:53:58.488Z,2.38
2023-01-31T22:56:30.906Z,2.22
2023-01-31T22:59:04.349Z,2.20
2023-01-31T23:01:37.201Z,2.30
2023-01-31T23:04:08.378Z,2.23
2023-01-31T23:06:37.635Z,2.16
2023-01-31T23:09:07.381Z,2.14
2023-01-31T23:11:34.594Z,2.13
2023-01-31T23:14:03.176Z,2.36
2023-01-31T23:16:49.010Z,2.16
2023-01-31T23:19:16.559Z,2.28
2023-01-31T23:21:44.710Z,2.30
2023-01-31T23:24:14.916Z,2.36
2023-01-31T23:26:43.356Z,2.43
2023-01-31T23:29:11.120Z,2.45
2023-01-31T23:31:41.674Z,2.45
2023-01-31T23:34:09.035Z,2.39
2023-01-31T23:36:37.111Z,2.45
2023-01-31T23:39:05.206Z,2.33
2023-01-31T23:41:32.515Z,2.37
2023-01-31T23:43:59.819Z,2.42
2023-01-31T23:46:27.027Z,2.44
2023-01-31T23:48:54.417Z,2.59
2023-01-31T23:51:21.687Z,2.45
2023-01-31T23:53:48.892Z,2.38
2023-01-31T23:56:16.203Z,2.42
2023-01-31T23:58:43.623Z,2.23
